createdAt,value
2022-08-27T00:00:24.531Z,99330.66
2022-08-27T00:03:26.152Z,99330.34
2022-08-27T00:06:27.717Z,99328.34
2022-08-27T00:09:29.414Z,99326.44
2022-08-27T00:12:31.177Z,99325.97
2022-08-27T00:15:33.410Z,99329.25
2022-08-27T00:18:35.778Z,99326.88
2022-08-27T00:21:37.342Z,99327.34
2022-08-27T00:24:48.545Z,99314.44
2022-08-27T00:27:50.885Z,99312.72
2022-08-27T00:30:55.533Z,99321.81
2022-08-27T00:33:57.129Z,99318.50
2022-08-27T00:37:03.807Z,99312.34
2022-08-27T00:40:07.892Z,99321.97
2022-08-27T00:43:10.093Z,99317.72
2022-08-27T00:46:15.905Z,99315.34
2022-08-27T00:49:21.803Z,99320.50
2022-08-27T00:52:23.327Z,99309.66
2022-08-27T00:55:26.110Z,99312.03
2022-08-27T00:58:31.743Z,99312.06
2022-08-27T01:01:33.657Z,99312.81
2022-08-27T01:04:38.889Z,99312.44
2022-08-27T01:07:41.196Z,99310.13
2022-08-27T01:10:42.834Z,99306.44
2022-08-27T01:13:59.091Z,99303.34
2022-08-27T01:17:02.659Z,99301.06
2022-08-27T01:20:05.821Z,99304.84
2022-08-27T01:23:10.366Z,99302.44
2022-08-27T01:26:13.717Z,99307.53
2022-08-27T01:29:15.426Z,99307.81
2022-08-27T01:32:18.365Z,99306.91
2022-08-27T01:35:21.295Z,99309.75
2022-08-27T01:38:31.119Z,99306.16
2022-08-27T01:41:33.130Z,99308.91
2022-08-27T01:44:42.551Z,99309.50
2022-08-27T01:47:44.169Z,99303.72
2022-08-27T01:50:46.530Z,99302.97
2022-08-27T01:53:48.150Z,99312.41
2022-08-27T01:56:49.741Z,99313.19
2022-08-27T01:59:51.323Z,99313.47
2022-08-27T02:02:53.082Z,99306.75
2022-08-27T02:05:54.741Z,99313.84
2022-08-27T02:08:56.446Z,99303.66
2022-08-27T02:11:58.088Z,99305.53
2022-08-27T02:14:59.706Z,99305.59
2022-08-27T02:18:01.694Z,99298.69
2022-08-27T02:21:03.404Z,99298.78
2022-08-27T02:24:05.189Z,99298.72
2022-08-27T02:27:06.778Z,99297.56
2022-08-27T02:30:09.373Z,99296.94
2022-08-27T02:33:11.038Z,99291.41
2022-08-27T02:36:13.693Z,99293.50
2022-08-27T02:39:15.329Z,99299.19
2022-08-27T02:42:16.918Z,99296.19
2022-08-27T02:45:18.959Z,99300.19
2022-08-27T02:48:20.822Z,99298.00
2022-08-27T02:51:22.511Z,99295.63
2022-08-27T02:54:25.306Z,99291.75
2022-08-27T02:57:28.120Z,99296.47
2022-08-27T03:00:29.826Z,99297.69
2022-08-27T03:03:31.633Z,99299.00
2022-08-27T03:06:33.218Z,99299.50
2022-08-27T03:09:34.876Z,99297.59
2022-08-27T03:12:36.841Z,99298.63
2022-08-27T03:15:38.486Z,99304.13
2022-08-27T03:18:40.254Z,99301.31
2022-08-27T03:21:41.825Z,99301.44
2022-08-27T03:24:55.540Z,99294.59
2022-08-27T03:27:57.290Z,99293.41
2022-08-27T03:31:01.316Z,99302.66
2022-08-27T03:34:04.429Z,99296.09
2022-08-27T03:37:06.050Z,99299.59
2022-08-27T03:40:08.288Z,99300.19
2022-08-27T03:43:13.641Z,99294.50
2022-08-27T03:46:15.546Z,99302.69
2022-08-27T03:49:20.275Z,99311.22
2022-08-27T03:52:22.440Z,99308.41
2022-08-27T03:55:24.269Z,99306.84
2022-08-27T03:58:25.903Z,99311.69
2022-08-27T04:01:29.081Z,99311.88
2022-08-27T04:04:31.273Z,99314.41
2022-08-27T04:07:33.127Z,99309.03
2022-08-27T04:10:34.954Z,99312.69
2022-08-27T04:13:36.756Z,99306.09
2022-08-27T04:16:41.487Z,99304.97
2022-08-27T04:19:43.093Z,99302.69
2022-08-27T04:22:44.806Z,99305.31
2022-08-27T04:25:46.593Z,99301.69
2022-08-27T04:28:48.696Z,99298.38
2022-08-27T04:31:50.349Z,99290.41
2022-08-27T04:34:55.725Z,99285.53
2022-08-27T04:37:57.566Z,99288.44
2022-08-27T04:41:17.897Z,99281.25
2022-08-27T04:44:19.484Z,99283.06
2022-08-27T04:47:21.175Z,99276.03
2022-08-27T04:50:22.798Z,99281.53
2022-08-27T04:53:31.626Z,99285.59
2022-08-27T04:56:33.452Z,99279.38
2022-08-27T04:59:35.387Z,99285.47
2022-08-27T05:02:36.954Z,99281.41
2022-08-27T05:05:38.900Z,99277.28
2022-08-27T05:08:44.525Z,99278.38
2022-08-27T05:11:47.157Z,99284.53
2022-08-27T05:14:48.855Z,99282.94
2022-08-27T05:17:50.442Z,99280.56
2022-08-27T05:20:52.107Z,99280.97
2022-08-27T05:23:54.388Z,99284.97
2022-08-27T05:26:56.072Z,99284.25
2022-08-27T05:29:57.989Z,99294.22
2022-08-27T05:32:59.859Z,99283.19
2022-08-27T05:36:01.658Z,99296.41
2022-08-27T05:39:04.263Z,99293.84
2022-08-27T05:42:05.888Z,99295.16
2022-08-27T05:45:07.763Z,99295.63
2022-08-27T05:48:12.114Z,99295.34
2022-08-27T05:51:26.111Z,99295.28
2022-08-27T05:54:27.960Z,99300.91
2022-08-27T05:57:29.583Z,99303.97
2022-08-27T06:00:49.649Z,99302.22
2022-08-27T06:03:52.866Z,99305.81
2022-08-27T06:06:54.862Z,99299.97
2022-08-27T06:09:58.820Z,99308.16
2022-08-27T06:13:03.516Z,99307.94
2022-08-27T06:16:06.756Z,99309.44
2022-08-27T06:19:08.768Z,99308.78
2022-08-27T06:22:11.063Z,99317.63
2022-08-27T06:25:13.474Z,99317.97
2022-08-27T06:28:15.100Z,99320.16
2022-08-27T06:31:18.444Z,99319.56
2022-08-27T06:34:20.138Z,99320.88
2022-08-27T06:37:21.730Z,99323.94
2022-08-27T06:40:23.642Z,99329.94
2022-08-27T06:43:25.742Z,99331.16
2022-08-27T06:46:28.154Z,99334.19
2022-08-27T06:49:30.009Z,99339.84
2022-08-27T06:52:31.834Z,99340.56
2022-08-27T06:55:37.163Z,99344.69
2022-08-27T06:58:38.973Z,99351.59
2022-08-27T07:01:41.789Z,99343.34
2022-08-27T07:04:43.544Z,99358.38
2022-08-27T07:07:48.635Z,99356.50
2022-08-27T07:10:50.524Z,99348.22
2022-08-27T07:13:52.561Z,99349.25
2022-08-27T07:16:54.201Z,99342.88
2022-08-27T07:19:56.597Z,99354.22
2022-08-27T07:22:59.238Z,99353.13
2022-08-27T07:26:01.442Z,99365.03
2022-08-27T07:29:04.342Z,99367.31
2022-08-27T07:32:06.126Z,99360.47
2022-08-27T07:35:10.805Z,99369.06
2022-08-27T07:38:12.731Z,99375.38
2022-08-27T07:41:14.570Z,99373.44
2022-08-27T07:44:25.932Z,99373.81
2022-08-27T07:47:27.798Z,99379.06
2022-08-27T07:50:29.361Z,99372.22
2022-08-27T07:53:31.889Z,99377.19
2022-08-27T07:56:33.741Z,99372.53
2022-08-27T07:59:35.394Z,99370.31
2022-08-27T08:02:37.458Z,99379.38
2022-08-27T08:05:43.218Z,99382.06
2022-08-27T08:08:45.366Z,99383.47
2022-08-27T08:11:46.970Z,99384.66
2022-08-27T08:14:49.196Z,99385.47
2022-08-27T08:17:50.921Z,99385.44
2022-08-27T08:20:58.541Z,99387.03
2022-08-27T08:24:02.345Z,99388.63
2022-08-27T08:27:07.093Z,99393.16
2022-08-27T08:30:09.961Z,99402.34
2022-08-27T08:33:13.530Z,99401.19
2022-08-27T08:36:15.592Z,99406.41
2022-08-27T08:39:18.630Z,99404.88
2022-08-27T08:42:24.822Z,99411.88
2022-08-27T08:45:28.280Z,99398.06
2022-08-27T08:48:29.833Z,99402.16
2022-08-27T08:51:34.242Z,99397.44
2022-08-27T08:54:35.850Z,99403.59
2022-08-27T08:57:39.747Z,99402.81
2022-08-27T09:00:42.617Z,99403.94
2022-08-27T09:03:59.318Z,99403.59
2022-08-27T09:07:03.186Z,99405.16
2022-08-27T09:10:16.183Z,99409.44
2022-08-27T09:13:22.202Z,99411.19
2022-08-27T09:16:23.915Z,99412.13
2022-08-27T09:19:25.857Z,99411.75
2022-08-27T09:22:38.745Z,99410.53
2022-08-27T09:25:41.864Z,99418.59
2022-08-27T09:29:02.191Z,99419.38
2022-08-27T09:32:05.097Z,99409.69
2022-08-27T09:35:08.566Z,99408.84
2022-08-27T09:38:10.315Z,99414.28
2022-08-27T09:41:17.567Z,99408.56
2022-08-27T09:44:20.668Z,99416.19
2022-08-27T09:47:22.470Z,99409.47
2022-08-27T09:50:24.655Z,99408.63
2022-08-27T09:53:26.419Z,99402.66
2022-08-27T09:56:35.840Z,99400.81
2022-08-27T09:59:39.750Z,99404.69
2022-08-27T10:02:53.966Z,99412.63
2022-08-27T10:05:55.659Z,99399.19
2022-08-27T10:08:58.328Z,99395.28
2022-08-27T10:12:17.737Z,99398.78
2022-08-27T10:15:19.437Z,99397.28
2022-08-27T10:18:31.388Z,99397.19
2022-08-27T10:21:39.709Z,99396.97
2022-08-27T10:24:47.849Z,99397.50
2022-08-27T10:27:55.498Z,99396.59
2022-08-27T10:31:06.227Z,99393.88
2022-08-27T10:34:12.302Z,99387.59
2022-08-27T10:37:20.161Z,99395.66
2022-08-27T10:40:42.089Z,99388.53
2022-08-27T10:43:47.814Z,99394.50
2022-08-27T10:47:07.825Z,99392.97
2022-08-27T10:50:12.585Z,99381.50
2022-08-27T10:53:20.387Z,99383.34
2022-08-27T10:56:26.026Z,99381.88
2022-08-27T10:59:38.121Z,99388.50
2022-08-27T11:02:44.589Z,99386.94
2022-08-27T11:05:47.000Z,99379.59
2022-08-27T11:08:59.634Z,99377.97
2022-08-27T11:12:14.387Z,99388.03
2022-08-27T11:15:18.265Z,99378.47
2022-08-27T11:18:31.999Z,99380.09
2022-08-27T11:21:47.188Z,99376.41
2022-08-27T11:24:54.598Z,99380.19
2022-08-27T11:27:56.641Z,99383.00
2022-08-27T11:31:03.676Z,99378.38
2022-08-27T11:34:08.011Z,99371.19
2022-08-27T11:37:19.213Z,99378.00
2022-08-27T11:40:30.411Z,99373.84
2022-08-27T11:43:33.181Z,99370.31
2022-08-27T11:46:41.326Z,99375.75
2022-08-27T11:49:44.321Z,99367.38
2022-08-27T11:53:05.808Z,99372.75
2022-08-27T11:56:20.778Z,99374.34
2022-08-27T11:59:23.573Z,99383.13
2022-08-27T12:02:26.894Z,99370.75
2022-08-27T12:05:37.498Z,99366.13
2022-08-27T12:08:39.279Z,99359.66
2022-08-27T12:11:56.425Z,99359.81
2022-08-27T12:15:04.605Z,99354.84
2022-08-27T12:18:29.477Z,99353.34
2022-08-27T12:21:43.935Z,99359.81
2022-08-27T12:24:51.990Z,99363.25
2022-08-27T12:27:58.636Z,99359.25
2022-08-27T12:31:00.226Z,99362.97
2022-08-27T12:34:01.805Z,99355.72
2022-08-27T12:37:03.673Z,99355.88
2022-08-27T12:40:33.499Z,99357.41
2022-08-27T12:43:35.741Z,99347.59
2022-08-27T12:46:57.653Z,99354.81
2022-08-27T12:49:59.936Z,99354.59
2022-08-27T12:53:05.141Z,99359.34
2022-08-27T12:56:09.882Z,99356.56
2022-08-27T12:59:14.228Z,99363.75
2022-08-27T13:02:15.855Z,99352.31
2022-08-27T13:05:21.453Z,99358.50
2022-08-27T13:08:30.618Z,99358.78
2022-08-27T13:11:33.550Z,99352.53
2022-08-27T13:14:39.784Z,99357.56
2022-08-27T13:17:41.940Z,99359.47
2022-08-27T13:20:43.558Z,99348.97
2022-08-27T13:23:56.386Z,99346.88
2022-08-27T13:26:58.414Z,99344.47
2022-08-27T13:30:07.165Z,99350.94
2022-08-27T13:33:09.673Z,99344.84
2022-08-27T13:36:11.543Z,99349.94
2022-08-27T13:39:13.186Z,99349.84
2022-08-27T13:42:14.950Z,99340.13
2022-08-27T13:45:21.821Z,99334.31
2022-08-27T13:48:24.326Z,99334.94
2022-08-27T13:51:33.129Z,99337.66
2022-08-27T13:54:34.816Z,99340.00
2022-08-27T13:57:41.458Z,99342.22
2022-08-27T14:00:43.067Z,99348.88
2022-08-27T14:03:55.780Z,99349.31
2022-08-27T14:06:57.353Z,99349.16
2022-08-27T14:10:03.708Z,99336.09
2022-08-27T14:13:19.442Z,99341.03
2022-08-27T14:16:26.088Z,99340.03
2022-08-27T14:19:33.329Z,99342.13
2022-08-27T14:22:37.851Z,99336.16
2022-08-27T14:25:40.092Z,99350.25
2022-08-27T14:28:42.674Z,99346.94
2022-08-27T14:31:44.831Z,99356.31
2022-08-27T14:34:46.585Z,99353.50
2022-08-27T14:37:58.642Z,99348.19
2022-08-27T14:41:00.304Z,99357.44
2022-08-27T14:44:01.953Z,99360.72
2022-08-27T14:47:04.157Z,99361.94
2022-08-27T14:50:12.254Z,99354.72
2022-08-27T14:53:13.815Z,99356.19
2022-08-27T14:56:16.067Z,99351.59
2022-08-27T14:59:17.602Z,99349.34
2022-08-27T15:02:21.017Z,99342.25
2022-08-27T15:05:24.802Z,99350.69
2022-08-27T15:08:29.411Z,99357.63
2022-08-27T15:11:34.826Z,99357.28
2022-08-27T15:14:36.978Z,99356.84
2022-08-27T15:17:38.571Z,99353.00
2022-08-27T15:20:40.965Z,99348.84
2022-08-27T15:23:42.597Z,99354.22
2022-08-27T15:26:44.153Z,99356.66
2022-08-27T15:29:47.294Z,99356.06
2022-08-27T15:32:49.251Z,99351.53
2022-08-27T15:35:50.914Z,99355.28
2022-08-27T15:38:54.251Z,99347.97
2022-08-27T15:42:06.384Z,99349.06
2022-08-27T15:45:08.790Z,99357.69
2022-08-27T15:48:10.814Z,99349.63
2022-08-27T15:51:13.591Z,99356.00
2022-08-27T15:54:15.189Z,99359.16
2022-08-27T15:57:17.805Z,99354.06
2022-08-27T16:00:20.250Z,99358.50
2022-08-27T16:03:21.825Z,99357.72
2022-08-27T16:06:31.891Z,99359.59
2022-08-27T16:09:33.531Z,99361.53
2022-08-27T16:12:35.935Z,99359.94
2022-08-27T16:15:39.543Z,99356.78
2022-08-27T16:18:41.297Z,99353.97
2022-08-27T16:21:43.107Z,99358.19
2022-08-27T16:24:44.773Z,99356.44
2022-08-27T16:27:46.899Z,99365.56
2022-08-27T16:30:49.160Z,99356.34
2022-08-27T16:33:50.746Z,99364.81
2022-08-27T16:36:52.435Z,99362.09
2022-08-27T16:39:54.103Z,99366.84
2022-08-27T16:42:55.781Z,99361.41
2022-08-27T16:45:58.602Z,99363.22
2022-08-27T16:49:19.150Z,99368.38
2022-08-27T16:52:23.387Z,99370.56
2022-08-27T16:55:24.992Z,99367.28
2022-08-27T16:58:27.580Z,99365.00
2022-08-27T17:01:29.345Z,99362.19
2022-08-27T17:04:36.683Z,99363.19
2022-08-27T17:07:39.761Z,99371.09
2022-08-27T17:10:46.445Z,99367.03
2022-08-27T17:13:51.577Z,99370.88
2022-08-27T17:16:54.147Z,99368.78
2022-08-27T17:19:56.362Z,99366.06
2022-08-27T17:22:58.144Z,99363.38
2022-08-27T17:26:00.039Z,99358.13
2022-08-27T17:29:01.646Z,99357.72
2022-08-27T17:32:04.360Z,99362.22
2022-08-27T17:35:06.969Z,99364.09
2022-08-27T17:38:09.746Z,99364.66
2022-08-27T17:41:13.065Z,99364.22
2022-08-27T17:44:44.098Z,99362.50
2022-08-27T17:47:45.712Z,99362.19
2022-08-27T17:50:47.549Z,99366.63
2022-08-27T17:53:50.518Z,99364.63
2022-08-27T17:56:52.124Z,99368.25
2022-08-27T17:59:54.721Z,99377.38
2022-08-27T18:02:56.370Z,99370.13
2022-08-27T18:05:57.957Z,99377.63
2022-08-27T18:08:59.644Z,99381.94
2022-08-27T18:12:01.257Z,99383.22
2022-08-27T18:15:02.904Z,99385.16
2022-08-27T18:18:04.830Z,99387.56
2022-08-27T18:21:07.897Z,99392.16
2022-08-27T18:24:11.597Z,99392.00
2022-08-27T18:27:13.230Z,99396.16
2022-08-27T18:30:14.891Z,99399.78
2022-08-27T18:33:16.557Z,99406.94
2022-08-27T18:36:18.166Z,99411.88
2022-08-27T18:39:20.068Z,99402.34
2022-08-27T18:42:21.666Z,99398.72
2022-08-27T18:45:24.629Z,99404.41
2022-08-27T18:48:27.247Z,99411.09
2022-08-27T18:51:35.559Z,99402.03
2022-08-27T18:54:38.271Z,99406.13
2022-08-27T18:57:40.013Z,99407.56
2022-08-27T19:00:43.041Z,99406.47
2022-08-27T19:03:46.242Z,99409.00
2022-08-27T19:06:47.898Z,99409.78
2022-08-27T19:09:49.514Z,99414.56
2022-08-27T19:12:51.100Z,99419.13
2022-08-27T19:15:54.049Z,99423.75
2022-08-27T19:18:55.698Z,99429.47
2022-08-27T19:21:59.368Z,99425.97
2022-08-27T19:25:07.776Z,99438.16
2022-08-27T19:28:09.420Z,99440.06
2022-08-27T19:31:11.351Z,99448.78
2022-08-27T19:34:13.005Z,99448.31
2022-08-27T19:37:19.703Z,99452.94
2022-08-27T19:40:22.278Z,99454.03
2022-08-27T19:43:24.076Z,99458.31
2022-08-27T19:46:26.437Z,99460.19
2022-08-27T19:49:28.122Z,99459.53
2022-08-27T19:52:29.787Z,99470.31
2022-08-27T19:55:31.371Z,99471.44
2022-08-27T19:58:33.323Z,99469.88
2022-08-27T20:01:35.166Z,99472.78
2022-08-27T20:04:51.488Z,99473.91
2022-08-27T20:07:59.923Z,99474.22
2022-08-27T20:11:01.599Z,99472.66
2022-08-27T20:14:03.187Z,99477.75
2022-08-27T20:17:04.790Z,99478.84
2022-08-27T20:20:08.897Z,99484.38
2022-08-27T20:23:10.504Z,99492.13
2022-08-27T20:26:12.111Z,99485.94
2022-08-27T20:29:15.057Z,99487.19
2022-08-27T20:32:35.406Z,99487.63
2022-08-27T20:35:38.721Z,99489.91
2022-08-27T20:38:40.662Z,99491.03
2022-08-27T20:41:42.326Z,99491.50
2022-08-27T20:44:46.701Z,99487.22
2022-08-27T20:47:48.737Z,99491.34
2022-08-27T20:50:50.373Z,99493.22
2022-08-27T20:53:52.275Z,99493.38
2022-08-27T20:56:53.866Z,99498.28
2022-08-27T21:00:13.841Z,99498.91
2022-08-27T21:03:15.526Z,99491.28
2022-08-27T21:06:17.270Z,99494.09
2022-08-27T21:09:19.062Z,99501.28
2022-08-27T21:12:22.805Z,99493.91
2022-08-27T21:15:25.150Z,99492.69
2022-08-27T21:18:29.773Z,99495.16
2022-08-27T21:21:31.732Z,99491.94
2022-08-27T21:24:33.942Z,99499.34
2022-08-27T21:27:35.621Z,99497.25
2022-08-27T21:30:37.439Z,99496.75
2022-08-27T21:33:39.585Z,99506.25
2022-08-27T21:36:41.381Z,99501.28
2022-08-27T21:39:43.013Z,99502.22
2022-08-27T21:42:44.595Z,99495.97
2022-08-27T21:45:46.292Z,99495.22
2022-08-27T21:48:48.688Z,99503.44
2022-08-27T21:52:03.268Z,99502.44
2022-08-27T21:55:05.362Z,99509.03
2022-08-27T21:58:06.998Z,99512.66
2022-08-27T22:01:08.721Z,99517.03
2022-08-27T22:04:10.470Z,99509.69
2022-08-27T22:07:12.103Z,99509.88
2022-08-27T22:10:13.703Z,99506.88
2022-08-27T22:13:15.346Z,99511.38
2022-08-27T22:16:17.068Z,99514.47
2022-08-27T22:19:18.790Z,99520.94
2022-08-27T22:22:20.387Z,99507.22
2022-08-27T22:25:22.006Z,99524.41
2022-08-27T22:28:24.029Z,99522.03
2022-08-27T22:31:25.817Z,99519.47
2022-08-27T22:34:27.473Z,99523.53
2022-08-27T22:37:30.103Z,99530.78
2022-08-27T22:40:32.676Z,99531.91
2022-08-27T22:43:35.005Z,99527.59
2022-08-27T22:46:36.638Z,99524.41
2022-08-27T22:49:38.348Z,99530.97
2022-08-27T22:52:42.290Z,99531.69
2022-08-27T22:55:47.991Z,99534.44
2022-08-27T22:58:51.749Z,99536.13
2022-08-27T23:01:56.759Z,99534.31
2022-08-27T23:04:58.391Z,99531.94
2022-08-27T23:08:00.476Z,99532.19
2022-08-27T23:11:03.437Z,99534.75
2022-08-27T23:14:05.026Z,99534.41
2022-08-27T23:17:06.669Z,99532.72
2022-08-27T23:20:09.085Z,99528.72
2022-08-27T23:23:10.893Z,99524.44
2022-08-27T23:26:31.101Z,99528.00
2022-08-27T23:29:32.736Z,99539.53
2022-08-27T23:32:34.592Z,99531.78
2022-08-27T23:35:36.341Z,99531.56
2022-08-27T23:38:37.950Z,99541.06
2022-08-27T23:41:39.846Z,99537.38
2022-08-27T23:44:41.709Z,99538.81
2022-08-27T23:47:43.606Z,99533.25
2022-08-27T23:50:45.374Z,99528.97
2022-08-27T23:53:47.019Z,99535.66
2022-08-27T23:56:49.418Z,99536.22
2022-08-27T23:59:50.974Z,99536.78
